Flight Track Log - Related Links

Times and Time Zones

All times are in EDT time to prevent confusion due to time zone crossing. See the THY2186 flight status page for this flight to view local times or setup timezone preferences in your user account.

Time Position Orientation Groundspeed Altitude Reporting Facility
EDT Latitude Longitude Course Direction KTS MPH feet Rate Location/Type
Tue 04:30:00 PM 40.8821 29.3325 104° East  Level Estimated
Tue 04:31:00 PM 40.8580 29.4601 104° East  Level Estimated
Tue 04:32:00 PM 40.8339 29.5876 104° East  Level Estimated
Tue 04:33:00 PM 40.8095 29.7150 104° East  Level Estimated
Tue 04:34:00 PM 40.7850 29.8424 104° East  Level Estimated
Tue 04:35:00 PM 40.7604 29.9696 104° East  Level Estimated
Tue 04:36:00 PM 40.7357 30.0967 104° East  Level Estimated
Tue 04:37:00 PM 40.7108 30.2238 104° East  Level Estimated
Tue 04:38:00 PM 40.6857 30.3507 105° East  Level Estimated
Tue 04:39:00 PM 40.6606 30.4776 105° East  Level Estimated
Tue 04:40:00 PM 40.6353 30.6043 105° East  Level Estimated
Tue 04:41:00 PM 40.6098 30.7310 105° East  Level Estimated
Tue 04:42:00 PM 40.5842 30.8576 105° East  Level Estimated
Tue 04:43:00 PM 40.5585 30.9841 105° East  Level Estimated
Tue 04:44:00 PM 40.5326 31.1104 105° East  Level Estimated
Tue 04:45:00 PM 40.5066 31.2367 105° East  Level Estimated
Tue 04:46:00 PM 40.4805 31.3629 105° East  Level Estimated
Tue 04:47:00 PM 40.4542 31.4890 105° East  Level Estimated
Tue 04:48:00 PM 40.4278 31.6149 105° East  Level Estimated
Tue 04:49:00 PM 40.4013 31.7408 105° East  Level Estimated
Tue 04:50:00 PM 40.3746 31.8666 106° East  Level Estimated
Tue 04:51:00 PM 40.3478 31.9923 106° East  Level Estimated
Tue 04:52:00 PM 40.3208 32.1179 106° East  Level Estimated
Tue 04:53:00 PM 40.2937 32.2433 106° East  Level Estimated
Tue 04:54:00 PM 40.2665 32.3687 106° East  Level Estimated
Tue 04:55:00 PM 40.2391 32.4940 106° East  Level Estimated
Tue 04:56:00 PM 40.2116 32.6192 106° East  Level Estimated
Tue 04:57:00 PM 40.1840 32.7443 106° East  Level Estimated
Tue 04:58:00 PM 40.1562 32.8692 106° East  Level Estimated
Tue 04:59:00 PM 40.1283 32.9941 106° East  Level Estimated
Tue 05:00:00 PM 40.1281 32.9951 106° East  Level Estimated
Tue 05:01:00 PM 40.1281 32.9951 49° Northeast  Level Estimated
Tue 05:02:00 PM 40.1281 32.9951 49° Northeast  Level Estimated
Tue 05:03:00 PM 40.1281 32.9951 49° Northeast  Level Estimated
Tue 05:04:00 PM 40.1281 32.9951 49° Northeast  Level Estimated
Tue 05:05:00 PM 40.1281 32.9951 49° Northeast  Level Estimated
Tue 05:06:00 PM 40.1281 32.9951 49° Northeast  Level Estimated
Tue 05:07:00 PM 40.1281 32.9951 49° Northeast  Level Estimated
Tue 05:08:00 PM 40.1281 32.9951 49° Northeast  Level Estimated
Tue 05:09:00 PM 40.1281 32.9951 49° Northeast  Level Estimated
Tue 05:10:00 PM 40.1281 32.9951 49° Northeast  Level Estimated
Tue 05:11:00 PM 40.1281 32.9951 49° Northeast  Level Estimated
Tue 05:12:00 PM 40.1281 32.9951 49° Northeast  Level Estimated
Tue 05:13:00 PM 40.1281 32.9951 49° Northeast  Level Estimated
Tue 05:14:00 PM 40.1281 32.9951 49° Northeast  Level Estimated
Tue 05:15:00 PM 40.1281 32.9951 49° Northeast  Level Estimated

Login

Don't have an account? Register now (free) for customized features, flight alerts, and more!